Airfield :
LOGIN :

Register | Disclaimer

   EN    FR    IT 

 










Legend :    VFR   Marginal VFR   IFR   Intensive IFR   Very Intensive IFR
Visi :
Ceiling :
>= 8 km
>= 3000ft
5 to 8 km
1000 to 3000 ft
1500m to 5 km
500 to 1000 ft
800 to 1500m
200 to 500 ft
< 800m
< 200 ft
Symbols :   Thunderstorms  Fog  Heavy snow  Heavy precipitations  Wind > 20 kt
SIGMETs :     Misc.  Thunderstorms  Icing  Turbulence  Mountain Waves  Volcanic Ashes







- Airport Elevation : 1273 ft
- IATA code : LJU


LJLJ - Ljubljana

CURRENT METAR :
  • 192230Z 32003KT 7000 NSC M02/M04 Q1021 NOSIG

EXPIRED METARs :
  • 192200Z 29005KT 8000 NSC M02/M04 Q1021 NOSIG
  • 192130Z VRB01KT 8000 NSC M01/M02 Q1021 NOSIG
  • 192100Z 28004KT 8000 NSC 00/M01 Q1021 NOSIG
  • 192030Z 30001KT 8000 NSC 01/M01 Q1021 NOSIG
  • 192000Z VRB01KT CAVOK 02/M00 Q1021 NOSIG
  • 191930Z 00000KT CAVOK 02/M00 Q1021 NOSIG

TAF TAF LJLJ
Valid from the 19 at 21:00 until the 20 at 21:00 UTC


192000Z 1921/2021 VRB02KT CAVOK
BECMG 1921/1923 7000 NSC
PROB30
TEMPO 2000/2008 3500 BR NSC
BECMG 2007/2010 CAVOK
No reported NOTAMs for that airfield.



MET'MAP, your aeronautical weather chart ! - Copyright ORBIFLY December 2007 - Disclaimer

ORBIFLY MET'MAP TEAM :

Programming & Development : Alexandra Zaïnal
Concept & Development : Baudouin d'Aumeries
Co-Development & Prog : Marc-Olivier Méhu
Technical & hardware support : Manuel Goepfert

Contact : metmap@orbifly.com




SOURCES & CREDITS :

   NOAA